createdAt,value
2018-08-31T00:02:46.653Z,12.20
2018-08-31T00:06:08.002Z,12.25
2018-08-31T00:11:07.821Z,12.24
2018-08-31T00:14:12.174Z,12.24
2018-08-31T00:17:16.497Z,12.27
2018-08-31T00:20:20.744Z,12.28
2018-08-31T00:24:40.529Z,12.26
2018-08-31T00:28:02.068Z,12.26
2018-08-31T00:34:32.123Z,12.26
2018-08-31T00:38:54.280Z,12.23
2018-08-31T00:44:20.712Z,12.19
2018-08-31T00:47:25.144Z,12.19
2018-08-31T00:50:30.073Z,12.17
2018-08-31T00:53:34.351Z,12.16
2018-08-31T00:56:38.653Z,12.15
2018-08-31T00:59:42.964Z,12.14
2018-08-31T01:02:47.457Z,12.10
2018-08-31T01:05:51.847Z,12.10
2018-08-31T01:08:56.085Z,12.08
2018-08-31T01:12:00.393Z,12.07
2018-08-31T01:15:04.712Z,12.08
2018-08-31T01:18:09.035Z,12.05
2018-08-31T01:21:13.334Z,12.07
2018-08-31T01:24:17.708Z,12.10
2018-08-31T01:27:21.955Z,12.08
2018-08-31T01:30:26.299Z,12.06
2018-08-31T01:33:30.621Z,12.00
2018-08-31T01:36:34.965Z,11.96
2018-08-31T01:39:39.309Z,11.92
2018-08-31T01:42:43.684Z,11.88
2018-08-31T01:45:48.009Z,11.87
2018-08-31T01:48:52.376Z,11.86
2018-08-31T01:51:56.659Z,11.84
2018-08-31T01:55:00.971Z,11.82
2018-08-31T01:58:05.294Z,11.80
2018-08-31T02:01:09.616Z,11.81
2018-08-31T02:04:14.134Z,11.82
2018-08-31T02:07:18.486Z,11.81
2018-08-31T02:10:22.717Z,11.79
2018-08-31T02:13:26.995Z,11.80
2018-08-31T02:16:31.333Z,11.79
2018-08-31T02:19:35.648Z,11.80
2018-08-31T02:22:39.986Z,11.78
2018-08-31T02:25:44.272Z,11.74
2018-08-31T02:28:48.563Z,11.70
2018-08-31T02:31:52.868Z,11.69
2018-08-31T02:34:57.115Z,11.73
2018-08-31T02:38:01.409Z,11.69
2018-08-31T02:41:05.851Z,11.68
2018-08-31T02:44:10.143Z,11.65
2018-08-31T02:47:14.390Z,11.67
2018-08-31T02:50:18.769Z,11.66
2018-08-31T02:53:23.090Z,11.61
2018-08-31T02:56:27.441Z,11.57
2018-08-31T02:59:31.756Z,11.63
2018-08-31T03:02:36.055Z,11.68
2018-08-31T03:05:40.512Z,11.65
2018-08-31T03:08:44.824Z,11.64
2018-08-31T03:11:49.072Z,11.67
2018-08-31T03:14:53.439Z,11.65
2018-08-31T03:17:57.684Z,11.61
2018-08-31T03:21:02.093Z,11.59
2018-08-31T03:24:06.447Z,11.57
2018-08-31T03:27:10.862Z,11.53
2018-08-31T03:30:15.161Z,11.52
2018-08-31T03:33:19.510Z,11.47
2018-08-31T03:36:23.776Z,11.46
2018-08-31T03:39:28.136Z,11.50
2018-08-31T03:42:32.472Z,11.54
2018-08-31T03:45:36.789Z,11.53
2018-08-31T03:48:41.117Z,11.56
2018-08-31T03:51:45.434Z,11.68
2018-08-31T03:54:50.094Z,11.85
2018-08-31T03:57:54.487Z,11.96
2018-08-31T04:00:58.792Z,12.07
2018-08-31T04:04:03.208Z,12.15
2018-08-31T04:07:07.569Z,12.22
2018-08-31T04:10:11.844Z,12.31
2018-08-31T04:13:16.096Z,12.36
2018-08-31T04:16:20.397Z,12.40
2018-08-31T04:19:24.701Z,12.45
2018-08-31T04:22:29.041Z,12.49
2018-08-31T04:25:33.361Z,12.49
2018-08-31T04:28:37.702Z,12.51
2018-08-31T04:31:42.166Z,12.52
2018-08-31T04:34:46.533Z,12.53
2018-08-31T04:37:50.867Z,12.56
2018-08-31T04:40:55.173Z,12.57
2018-08-31T04:43:59.449Z,12.55
2018-08-31T04:47:03.836Z,12.56
2018-08-31T04:50:08.366Z,12.57
2018-08-31T04:53:12.642Z,12.60
2018-08-31T04:56:17.006Z,12.65
2018-08-31T04:59:21.326Z,12.71
2018-08-31T05:02:25.650Z,12.76
2018-08-31T05:05:29.961Z,12.80
2018-08-31T05:08:34.281Z,12.84
2018-08-31T05:11:38.584Z,12.86
2018-08-31T05:14:42.912Z,12.90
2018-08-31T05:17:47.222Z,12.93
2018-08-31T05:20:51.480Z,12.95
2018-08-31T05:23:55.909Z,13.00
2018-08-31T05:27:00.186Z,13.04
2018-08-31T05:30:04.757Z,13.09
2018-08-31T05:33:09.173Z,13.14
2018-08-31T05:36:13.423Z,13.18
2018-08-31T05:39:17.780Z,13.24
2018-08-31T05:42:22.176Z,13.29
2018-08-31T05:45:26.562Z,13.34
2018-08-31T05:48:30.923Z,13.40
2018-08-31T05:51:35.189Z,13.48
2018-08-31T05:54:39.526Z,13.57
2018-08-31T05:57:43.990Z,13.62
2018-08-31T06:00:48.324Z,13.71
2018-08-31T06:03:52.696Z,13.77
2018-08-31T06:06:56.991Z,13.85
2018-08-31T06:10:01.307Z,13.91
2018-08-31T06:13:05.866Z,13.96
2018-08-31T06:16:10.313Z,14.01
2018-08-31T06:19:14.574Z,14.06
2018-08-31T06:22:18.820Z,14.09
2018-08-31T06:25:23.121Z,14.11
2018-08-31T06:28:27.479Z,14.21
2018-08-31T06:31:31.729Z,14.28
2018-08-31T06:34:36.078Z,14.41
2018-08-31T06:37:40.440Z,14.50
2018-08-31T06:40:44.716Z,14.58
2018-08-31T06:43:48.988Z,14.66
2018-08-31T06:46:53.345Z,14.75
2018-08-31T06:49:57.732Z,14.85
2018-08-31T06:53:02.020Z,14.97
2018-08-31T06:56:06.373Z,15.13
2018-08-31T06:59:10.654Z,15.19
2018-08-31T07:02:15.023Z,15.28
2018-08-31T07:05:19.481Z,15.38
2018-08-31T07:08:23.747Z,15.49
2018-08-31T07:11:28.055Z,15.59
2018-08-31T07:14:32.376Z,15.63
2018-08-31T07:17:36.958Z,15.77
2018-08-31T07:20:41.214Z,15.85
2018-08-31T07:23:45.553Z,15.91
2018-08-31T07:26:49.956Z,16.05
2018-08-31T07:29:54.208Z,16.17
2018-08-31T07:32:58.535Z,16.34
2018-08-31T07:36:02.823Z,16.48
2018-08-31T07:39:09.886Z,16.50
2018-08-31T07:42:14.272Z,16.48
2018-08-31T07:45:18.572Z,16.58
2018-08-31T07:48:22.889Z,16.59
2018-08-31T07:51:27.192Z,16.60
2018-08-31T07:54:31.553Z,16.59
2018-08-31T07:57:35.847Z,16.59
2018-08-31T08:00:40.196Z,16.51
2018-08-31T08:03:44.470Z,16.42
2018-08-31T08:06:48.875Z,16.58
2018-08-31T08:09:53.240Z,16.84
2018-08-31T08:12:57.606Z,17.14
2018-08-31T08:16:01.886Z,17.22
2018-08-31T08:19:06.220Z,17.24
2018-08-31T08:22:10.522Z,17.32
2018-08-31T08:25:14.852Z,17.43
2018-08-31T08:28:19.196Z,17.33
2018-08-31T08:31:23.526Z,17.22
2018-08-31T08:34:27.820Z,17.36
2018-08-31T08:37:32.119Z,17.54
2018-08-31T08:40:36.448Z,17.67
2018-08-31T08:43:40.734Z,17.72
2018-08-31T08:46:45.223Z,18.06
2018-08-31T08:49:49.521Z,18.28
2018-08-31T08:52:53.834Z,18.24
2018-08-31T08:55:58.201Z,18.29
2018-08-31T08:59:02.503Z,18.54
2018-08-31T09:02:07.037Z,18.75
2018-08-31T09:05:11.450Z,18.82
2018-08-31T09:08:15.772Z,18.80
2018-08-31T09:11:20.092Z,18.74
2018-08-31T09:14:24.392Z,18.71
2018-08-31T09:17:28.738Z,18.77
2018-08-31T09:20:33.086Z,18.95
2018-08-31T09:23:37.349Z,19.06
2018-08-31T09:26:41.697Z,19.13
2018-08-31T09:29:45.940Z,19.06
2018-08-31T09:32:50.260Z,19.19
2018-08-31T09:35:54.556Z,19.31
2018-08-31T09:38:58.822Z,19.45
2018-08-31T09:42:03.159Z,19.37
2018-08-31T09:45:07.724Z,19.37
2018-08-31T09:48:12.019Z,19.28
2018-08-31T09:51:17.001Z,19.19
2018-08-31T09:54:21.375Z,19.15
2018-08-31T09:57:25.758Z,19.47
2018-08-31T10:00:35.395Z,19.51
2018-08-31T10:03:39.795Z,19.18
2018-08-31T10:06:44.213Z,18.83
2018-08-31T10:09:48.534Z,18.71
2018-08-31T10:12:52.994Z,18.54
2018-08-31T10:15:57.360Z,18.27
2018-08-31T10:19:01.665Z,18.17
2018-08-31T10:22:05.942Z,18.45
2018-08-31T10:25:10.356Z,18.87
2018-08-31T10:28:14.744Z,19.32
2018-08-31T10:31:19.043Z,19.73
2018-08-31T10:34:23.337Z,20.18
2018-08-31T10:37:27.755Z,20.44
2018-08-31T10:40:32.057Z,20.51
2018-08-31T10:43:36.503Z,20.68
2018-08-31T10:46:40.758Z,20.82
2018-08-31T10:49:45.141Z,20.93
2018-08-31T10:52:49.408Z,21.22
2018-08-31T10:55:53.743Z,21.43
2018-08-31T10:58:58.052Z,21.21
2018-08-31T11:02:02.334Z,20.86
2018-08-31T11:05:06.701Z,20.40
2018-08-31T11:08:11.064Z,20.12
2018-08-31T11:11:15.327Z,20.29
2018-08-31T11:14:19.618Z,20.59
2018-08-31T11:17:23.985Z,20.39
2018-08-31T11:20:28.296Z,20.26
2018-08-31T11:23:32.613Z,20.43
2018-08-31T11:26:36.935Z,20.72
2018-08-31T11:29:41.270Z,20.88
2018-08-31T11:32:45.702Z,20.67
2018-08-31T11:35:50.033Z,20.26
2018-08-31T11:38:54.358Z,19.96
2018-08-31T11:41:58.671Z,19.64
2018-08-31T11:45:03.020Z,19.63
2018-08-31T11:48:07.352Z,19.94
2018-08-31T11:51:11.650Z,20.32
2018-08-31T11:54:15.948Z,20.60
2018-08-31T11:57:20.254Z,20.88
2018-08-31T12:00:24.546Z,21.09
2018-08-31T12:03:28.911Z,21.48
2018-08-31T12:06:33.348Z,21.55
2018-08-31T12:09:37.635Z,21.36
2018-08-31T12:12:41.973Z,21.03
2018-08-31T12:15:46.298Z,20.83
2018-08-31T12:18:50.624Z,21.06
2018-08-31T12:21:54.963Z,21.34
2018-08-31T12:24:59.369Z,21.63
2018-08-31T12:28:03.702Z,21.44
2018-08-31T12:31:08.019Z,21.02
2018-08-31T12:34:12.448Z,20.79
2018-08-31T12:37:16.845Z,20.31
2018-08-31T12:40:21.376Z,20.15
2018-08-31T12:43:25.710Z,20.29
2018-08-31T12:46:30.026Z,20.59
2018-08-31T12:49:34.367Z,20.61
2018-08-31T12:52:38.708Z,20.37
2018-08-31T12:55:43.183Z,20.44
2018-08-31T12:58:47.486Z,20.43
2018-08-31T13:01:51.829Z,20.50
2018-08-31T13:04:56.464Z,20.73
2018-08-31T13:08:01.062Z,20.84
2018-08-31T13:11:06.913Z,21.21
2018-08-31T13:14:11.781Z,20.99
2018-08-31T13:17:16.209Z,21.19
2018-08-31T13:20:20.636Z,21.21
2018-08-31T13:23:25.033Z,20.99
2018-08-31T13:26:29.447Z,20.61
2018-08-31T13:29:33.905Z,20.37
2018-08-31T13:32:38.997Z,20.02
2018-08-31T13:35:43.792Z,20.03
2018-08-31T13:38:48.486Z,19.69
2018-08-31T13:41:53.130Z,19.45
2018-08-31T13:44:57.726Z,19.24
2018-08-31T13:48:02.271Z,19.28
2018-08-31T13:51:06.803Z,19.17
2018-08-31T13:54:11.449Z,19.21
2018-08-31T13:57:15.963Z,19.11
2018-08-31T14:00:21.366Z,18.96
2018-08-31T14:03:25.929Z,18.95
2018-08-31T14:06:30.376Z,18.92
2018-08-31T14:09:35.390Z,18.95
2018-08-31T14:12:42.568Z,19.04
2018-08-31T14:15:47.154Z,19.02
2018-08-31T14:18:51.617Z,19.11
2018-08-31T14:21:55.954Z,19.03
2018-08-31T14:25:01.060Z,19.02
2018-08-31T14:28:05.696Z,19.03
2018-08-31T14:31:10.633Z,18.99
2018-08-31T14:34:17.063Z,18.81
2018-08-31T14:37:21.546Z,18.51
2018-08-31T14:40:25.944Z,18.31
2018-08-31T14:43:30.375Z,18.17
2018-08-31T14:46:34.935Z,18.05
2018-08-31T14:49:39.503Z,17.89
2018-08-31T14:52:44.494Z,17.84
2018-08-31T14:55:51.573Z,17.81
2018-08-31T14:58:56.139Z,17.73
2018-08-31T15:02:00.574Z,17.68
2018-08-31T15:05:05.089Z,17.71
2018-08-31T15:08:10.091Z,17.74
2018-08-31T15:11:14.928Z,17.74
2018-08-31T15:14:19.453Z,17.79
2018-08-31T15:17:24.522Z,17.76
2018-08-31T15:20:29.256Z,17.92
2018-08-31T15:23:36.085Z,18.09
2018-08-31T15:26:41.108Z,18.43
2018-08-31T15:29:45.922Z,19.09
2018-08-31T15:32:50.484Z,19.63
2018-08-31T15:35:55.132Z,20.11
2018-08-31T15:38:59.715Z,20.02
2018-08-31T15:42:04.059Z,20.15
2018-08-31T15:45:08.597Z,20.06
2018-08-31T15:48:12.989Z,19.93
2018-08-31T15:51:17.364Z,20.38
2018-08-31T15:54:21.801Z,20.60
2018-08-31T15:57:26.295Z,20.29
2018-08-31T16:00:30.609Z,19.64
2018-08-31T16:03:34.971Z,19.30
2018-08-31T16:06:39.294Z,19.07
2018-08-31T16:09:43.721Z,18.87
2018-08-31T16:12:48.039Z,18.69
2018-08-31T16:15:52.461Z,18.59
2018-08-31T16:18:56.904Z,18.45
2018-08-31T16:22:01.165Z,18.35
2018-08-31T16:25:05.498Z,18.23
2018-08-31T16:28:09.875Z,17.99
2018-08-31T16:31:14.266Z,17.79
2018-08-31T16:34:18.718Z,17.58
2018-08-31T16:37:23.624Z,17.45
2018-08-31T16:40:28.507Z,17.22
2018-08-31T16:43:32.976Z,17.08
2018-08-31T16:46:37.336Z,16.88
2018-08-31T16:49:41.643Z,16.79
2018-08-31T16:52:46.029Z,16.68
2018-08-31T16:55:50.436Z,16.58
2018-08-31T16:58:56.366Z,16.54
2018-08-31T17:02:00.732Z,16.45
2018-08-31T17:05:05.335Z,16.41
2018-08-31T17:08:09.689Z,16.38
2018-08-31T17:11:14.090Z,16.32
2018-08-31T17:14:18.432Z,16.30
2018-08-31T17:17:22.712Z,16.25
2018-08-31T17:20:27.162Z,16.19
2018-08-31T17:23:31.429Z,16.10
2018-08-31T17:26:41.027Z,16.10
2018-08-31T17:29:47.002Z,16.09
2018-08-31T17:32:56.751Z,16.06
2018-08-31T17:36:06.519Z,16.02
2018-08-31T17:39:11.351Z,16.03
2018-08-31T17:42:15.637Z,16.04
2018-08-31T17:45:20.848Z,15.99
2018-08-31T17:48:25.292Z,15.95
2018-08-31T17:51:29.609Z,15.92
2018-08-31T17:54:33.937Z,15.91
2018-08-31T17:57:38.276Z,15.86
2018-08-31T18:00:42.730Z,15.84
2018-08-31T18:03:47.309Z,15.84
2018-08-31T18:06:53.480Z,15.91
2018-08-31T18:09:58.215Z,15.94
2018-08-31T18:13:02.625Z,16.00
2018-08-31T18:16:07.364Z,16.02
2018-08-31T18:19:12.610Z,16.00
2018-08-31T18:22:17.178Z,16.02
2018-08-31T18:25:21.623Z,16.05
2018-08-31T18:28:26.121Z,16.06
2018-08-31T18:31:30.638Z,16.03
2018-08-31T18:34:35.179Z,16.04
2018-08-31T18:37:39.684Z,16.04
2018-08-31T18:40:44.241Z,16.07
2018-08-31T18:43:48.813Z,16.08
2018-08-31T18:46:53.292Z,16.08
2018-08-31T18:49:57.655Z,16.04
2018-08-31T18:53:02.613Z,16.02
2018-08-31T18:56:07.010Z,15.98
2018-08-31T18:59:11.443Z,15.96
2018-08-31T19:02:15.891Z,15.95
2018-08-31T19:05:21.209Z,15.92
2018-08-31T19:08:25.669Z,15.91
2018-08-31T19:11:30.371Z,15.92
2018-08-31T19:14:34.934Z,15.89
2018-08-31T19:17:39.479Z,15.88
2018-08-31T19:20:43.972Z,15.85
2018-08-31T19:23:48.952Z,15.88
2018-08-31T19:26:57.181Z,15.90
2018-08-31T19:30:04.837Z,15.78
2018-08-31T19:33:09.524Z,15.73
2018-08-31T19:36:14.041Z,15.69
2018-08-31T19:39:18.499Z,15.61
2018-08-31T19:42:23.041Z,15.60
2018-08-31T19:45:27.540Z,15.54
2018-08-31T19:48:32.878Z,15.50
2018-08-31T19:51:38.437Z,15.44
2018-08-31T19:54:43.165Z,15.36
2018-08-31T19:57:47.911Z,15.30
2018-08-31T20:00:52.248Z,15.23
2018-08-31T20:03:56.606Z,15.17
2018-08-31T20:07:01.146Z,15.12
2018-08-31T20:10:05.595Z,15.05
2018-08-31T20:13:10.241Z,14.95
2018-08-31T20:16:15.032Z,14.87
2018-08-31T20:19:19.456Z,14.84
2018-08-31T20:22:24.503Z,14.83
2018-08-31T20:25:29.026Z,14.76
2018-08-31T20:28:33.395Z,14.70
2018-08-31T20:31:37.906Z,14.65
2018-08-31T20:34:42.505Z,14.65
2018-08-31T20:37:47.204Z,14.65
2018-08-31T20:40:51.525Z,14.62
2018-08-31T20:43:56.322Z,14.58
2018-08-31T20:47:01.270Z,14.52
2018-08-31T20:50:06.526Z,14.46
2018-08-31T20:53:11.240Z,14.38
2018-08-31T20:56:16.487Z,14.33
2018-08-31T20:59:21.654Z,14.29
2018-08-31T21:02:27.238Z,14.24
2018-08-31T21:05:31.981Z,14.18
2018-08-31T21:08:37.446Z,14.14
2018-08-31T21:11:42.920Z,14.12
2018-08-31T21:14:49.112Z,14.07
2018-08-31T21:17:55.030Z,14.02
2018-08-31T21:21:00.840Z,13.99
2018-08-31T21:24:06.530Z,13.99
2018-08-31T21:27:11.745Z,13.99
2018-08-31T21:30:17.377Z,13.98
2018-08-31T21:33:22.890Z,13.91
2018-08-31T21:36:28.016Z,13.83
2018-08-31T21:39:33.302Z,13.77
2018-08-31T21:42:37.714Z,13.71
2018-08-31T21:45:41.930Z,13.70
2018-08-31T21:48:47.485Z,13.69
2018-08-31T21:51:51.962Z,13.68
2018-08-31T21:54:56.258Z,13.69
2018-08-31T21:58:00.637Z,13.67
2018-08-31T22:01:10.280Z,13.64
2018-08-31T22:04:14.797Z,13.65
2018-08-31T22:07:19.789Z,13.60
2018-08-31T22:10:24.173Z,13.58
2018-08-31T22:13:28.555Z,13.52
2018-08-31T22:16:33.985Z,13.46
2018-08-31T22:19:38.338Z,13.41
2018-08-31T22:22:42.736Z,13.41
2018-08-31T22:25:47.448Z,13.35
2018-08-31T22:28:51.813Z,13.31
2018-08-31T22:31:56.111Z,13.29
2018-08-31T22:35:00.535Z,13.25
2018-08-31T22:38:05.299Z,13.24
2018-08-31T22:41:09.951Z,13.24
2018-08-31T22:44:14.335Z,13.23
2018-08-31T22:47:18.637Z,13.18
2018-08-31T22:50:23.001Z,13.11
2018-08-31T22:53:27.264Z,13.02
2018-08-31T22:56:31.637Z,12.99
2018-08-31T22:59:36.409Z,12.99
2018-08-31T23:02:41.031Z,12.97
2018-08-31T23:05:45.417Z,12.97
2018-08-31T23:08:50.055Z,12.92
2018-08-31T23:11:54.954Z,12.90
2018-08-31T23:14:59.293Z,12.91
2018-08-31T23:18:03.702Z,12.89
2018-08-31T23:21:08.753Z,12.89
2018-08-31T23:24:13.083Z,12.88
2018-08-31T23:27:17.516Z,12.82
2018-08-31T23:30:22.021Z,12.79
2018-08-31T23:33:26.441Z,12.71
2018-08-31T23:36:31.157Z,12.62
2018-08-31T23:39:35.460Z,12.57
2018-08-31T23:42:39.845Z,12.57
2018-08-31T23:45:44.179Z,12.56
2018-08-31T23:48:48.651Z,12.56
2018-08-31T23:51:53.093Z,12.55
2018-08-31T23:54:57.522Z,12.53
2018-08-31T23:58:01.890Z,12.54
